sensor_id;sensor_type;location;lat;lon;timestamp;pressure;altitude;pressure_sealevel;temperature;humidity
11327;BME280;5718;42.138;24.762;2022-07-09T00:00:52;99227.50;;;20.34;100.00
11327;BME280;5718;42.138;24.762;2022-07-09T00:03:21;99219.88;;;20.28;100.00
11327;BME280;5718;42.138;24.762;2022-07-09T00:05:48;99222.22;;;20.34;100.00
11327;BME280;5718;42.138;24.762;2022-07-09T00:08:14;99219.53;;;20.36;100.00
11327;BME280;5718;42.138;24.762;2022-07-09T00:10:41;99213.53;;;20.32;100.00
11327;BME280;5718;42.138;24.762;2022-07-09T00:13:08;99209.50;;;20.24;100.00
11327;BME280;5718;42.138;24.762;2022-07-09T00:15:35;99209.50;;;20.24;100.00
11327;BME280;5718;42.138;24.762;2022-07-09T00:18:02;99200.34;;;20.32;100.00
11327;BME280;5718;42.138;24.762;2022-07-09T00:20:30;99214.25;;;20.15;100.00
11327;BME280;5718;42.138;24.762;2022-07-09T00:22:57;99209.13;;;20.12;100.00
11327;BME280;5718;42.138;24.762;2022-07-09T00:25:24;99213.22;;;20.19;100.00
11327;BME280;5718;42.138;24.762;2022-07-09T00:27:50;99206.44;;;20.14;100.00
11327;BME280;5718;42.138;24.762;2022-07-09T00:30:17;99194.69;;;20.01;100.00
11327;BME280;5718;42.138;24.762;2022-07-09T00:32:44;99196.25;;;19.84;100.00
11327;BME280;5718;42.138;24.762;2022-07-09T00:35:11;99191.34;;;19.97;100.00
11327;BME280;5718;42.138;24.762;2022-07-09T00:37:39;99199.44;;;19.92;100.00
11327;BME280;5718;42.138;24.762;2022-07-09T00:40:07;99194.22;;;19.91;100.00
11327;BME280;5718;42.138;24.762;2022-07-09T00:42:33;99196.25;;;19.84;100.00
11327;BME280;5718;42.138;24.762;2022-07-09T00:45:00;99192.13;;;19.99;100.00
11327;BME280;5718;42.138;24.762;2022-07-09T00:47:27;99191.19;;;20.00;100.00
11327;BME280;5718;42.138;24.762;2022-07-09T00:49:54;99202.75;;;19.98;100.00
11327;BME280;5718;42.138;24.762;2022-07-09T00:52:21;99198.19;;;20.01;100.00
11327;BME280;5718;42.138;24.762;2022-07-09T00:54:50;99195.16;;;19.90;100.00
11327;BME280;5718;42.138;24.762;2022-07-09T00:57:17;99184.53;;;19.91;100.00
11327;BME280;5718;42.138;24.762;2022-07-09T00:59:45;99190.06;;;19.85;100.00
11327;BME280;5718;42.138;24.762;2022-07-09T01:02:12;99183.69;;;19.91;100.00
11327;BME280;5718;42.138;24.762;2022-07-09T01:04:39;99182.06;;;19.88;100.00
11327;BME280;5718;42.138;24.762;2022-07-09T01:07:06;99176.25;;;19.80;100.00
11327;BME280;5718;42.138;24.762;2022-07-09T01:09:33;99173.22;;;19.89;100.00
11327;BME280;5718;42.138;24.762;2022-07-09T01:12:01;99173.91;;;19.93;100.00
11327;BME280;5718;42.138;24.762;2022-07-09T01:14:28;99167.50;;;19.80;100.00
11327;BME280;5718;42.138;24.762;2022-07-09T01:16:59;99177.88;;;19.83;100.00
11327;BME280;5718;42.138;24.762;2022-07-09T01:19:26;99169.47;;;19.95;100.00
11327;BME280;5718;42.138;24.762;2022-07-09T01:21:55;99175.78;;;19.91;100.00
11327;BME280;5718;42.138;24.762;2022-07-09T01:24:22;99179.59;;;19.84;100.00
11327;BME280;5718;42.138;24.762;2022-07-09T01:26:49;99182.16;;;20.06;100.00
11327;BME280;5718;42.138;24.762;2022-07-09T01:29:18;99180.44;;;19.84;100.00
11327;BME280;5718;42.138;24.762;2022-07-09T01:31:44;99181.09;;;20.10;100.00
11327;BME280;5718;42.138;24.762;2022-07-09T01:34:11;99184.34;;;19.96;100.00
11327;BME280;5718;42.138;24.762;2022-07-09T01:36:38;99182.56;;;19.97;100.00
11327;BME280;5718;42.138;24.762;2022-07-09T01:39:06;99189.75;;;19.93;100.00
11327;BME280;5718;42.138;24.762;2022-07-09T01:41:33;99203.13;;;19.88;100.00
11327;BME280;5718;42.138;24.762;2022-07-09T01:43:59;99185.94;;;19.80;100.00
11327;BME280;5718;42.138;24.762;2022-07-09T01:46:26;99197.72;;;19.91;100.00
11327;BME280;5718;42.138;24.762;2022-07-09T01:48:53;99201.66;;;20.02;100.00
11327;BME280;5718;42.138;24.762;2022-07-09T01:51:19;99198.06;;;20.04;100.00
11327;BME280;5718;42.138;24.762;2022-07-09T01:53:47;99202.16;;;20.11;100.00
11327;BME280;5718;42.138;24.762;2022-07-09T01:56:15;99204.78;;;20.11;100.00
11327;BME280;5718;42.138;24.762;2022-07-09T01:58:42;99205.59;;;20.32;100.00
11327;BME280;5718;42.138;24.762;2022-07-09T02:01:10;99204.31;;;20.22;100.00
11327;BME280;5718;42.138;24.762;2022-07-09T02:03:37;99193.31;;;20.12;100.00
11327;BME280;5718;42.138;24.762;2022-07-09T02:06:04;99187.81;;;20.17;100.00
11327;BME280;5718;42.138;24.762;2022-07-09T02:08:31;99191.75;;;20.27;100.00
11327;BME280;5718;42.138;24.762;2022-07-09T02:10:57;99194.88;;;20.16;100.00
11327;BME280;5718;42.138;24.762;2022-07-09T02:13:26;99194.09;;;20.14;100.00
11327;BME280;5718;42.138;24.762;2022-07-09T02:15:52;99196.06;;;20.30;100.00
11327;BME280;5718;42.138;24.762;2022-07-09T02:18:19;99191.69;;;20.49;100.00
11327;BME280;5718;42.138;24.762;2022-07-09T02:20:46;99190.78;;;20.30;100.00
11327;BME280;5718;42.138;24.762;2022-07-09T02:23:13;99193.09;;;20.17;100.00
11327;BME280;5718;42.138;24.762;2022-07-09T02:25:39;99189.84;;;20.31;100.00
11327;BME280;5718;42.138;24.762;2022-07-09T02:28:06;99186.13;;;20.35;100.00
11327;BME280;5718;42.138;24.762;2022-07-09T02:30:34;99182.28;;;20.23;100.00
11327;BME280;5718;42.138;24.762;2022-07-09T02:33:02;99187.00;;;20.35;100.00
11327;BME280;5718;42.138;24.762;2022-07-09T02:35:29;99183.25;;;20.41;100.00
11327;BME280;5718;42.138;24.762;2022-07-09T02:37:56;99194.34;;;20.49;100.00
11327;BME280;5718;42.138;24.762;2022-07-09T02:40:23;99187.59;;;20.42;100.00
11327;BME280;5718;42.138;24.762;2022-07-09T02:42:49;99184.66;;;20.29;100.00
11327;BME280;5718;42.138;24.762;2022-07-09T02:45:16;99182.25;;;20.04;100.00
11327;BME280;5718;42.138;24.762;2022-07-09T02:47:44;99179.09;;;19.96;100.00
11327;BME280;5718;42.138;24.762;2022-07-09T02:50:11;99181.91;;;20.12;100.00
11327;BME280;5718;42.138;24.762;2022-07-09T02:52:38;99180.75;;;20.17;100.00
11327;BME280;5718;42.138;24.762;2022-07-09T02:55:05;99181.31;;;20.05;100.00
11327;BME280;5718;42.138;24.762;2022-07-09T02:57:32;99187.69;;;20.20;100.00
11327;BME280;5718;42.138;24.762;2022-07-09T02:59:59;99176.69;;;20.10;100.00
11327;BME280;5718;42.138;24.762;2022-07-09T03:02:26;99178.00;;;20.20;100.00
11327;BME280;5718;42.138;24.762;2022-07-09T03:04:54;99183.66;;;20.32;100.00
11327;BME280;5718;42.138;24.762;2022-07-09T03:07:20;99176.97;;;20.04;100.00
11327;BME280;5718;42.138;24.762;2022-07-09T03:09:47;99179.50;;;20.26;100.00
11327;BME280;5718;42.138;24.762;2022-07-09T03:12:14;99177.16;;;20.20;100.00
11327;BME280;5718;42.138;24.762;2022-07-09T03:14:41;99179.91;;;20.37;100.00
11327;BME280;5718;42.138;24.762;2022-07-09T03:17:08;99171.66;;;20.45;100.00
11327;BME280;5718;42.138;24.762;2022-07-09T03:19:34;99176.22;;;20.60;100.00
11327;BME280;5718;42.138;24.762;2022-07-09T03:22:03;99179.03;;;20.37;100.00
11327;BME280;5718;42.138;24.762;2022-07-09T03:24:30;99178.00;;;20.60;100.00
11327;BME280;5718;42.138;24.762;2022-07-09T03:26:56;99179.06;;;20.74;100.00
11327;BME280;5718;42.138;24.762;2022-07-09T03:29:23;99183.22;;;20.80;100.00
11327;BME280;5718;42.138;24.762;2022-07-09T03:31:50;99178.50;;;20.49;100.00
11327;BME280;5718;42.138;24.762;2022-07-09T03:34:16;99189.06;;;20.68;100.00
11327;BME280;5718;42.138;24.762;2022-07-09T03:36:43;99186.16;;;20.74;100.00
11327;BME280;5718;42.138;24.762;2022-07-09T03:39:11;99189.16;;;20.85;100.00
11327;BME280;5718;42.138;24.762;2022-07-09T03:41:39;99182.78;;;20.89;100.00
11327;BME280;5718;42.138;24.762;2022-07-09T03:44:06;99182.00;;;21.06;100.00
11327;BME280;5718;42.138;24.762;2022-07-09T03:46:32;99185.97;;;21.15;100.00
11327;BME280;5718;42.138;24.762;2022-07-09T03:48:59;99198.66;;;21.25;100.00
11327;BME280;5718;42.138;24.762;2022-07-09T03:51:26;99197.97;;;21.22;100.00
11327;BME280;5718;42.138;24.762;2022-07-09T03:53:53;99190.97;;;21.21;100.00
11327;BME280;5718;42.138;24.762;2022-07-09T03:56:21;99200.59;;;21.41;100.00
11327;BME280;5718;42.138;24.762;2022-07-09T03:58:48;99204.19;;;21.57;100.00
11327;BME280;5718;42.138;24.762;2022-07-09T04:01:14;99205.56;;;21.47;100.00
11327;BME280;5718;42.138;24.762;2022-07-09T04:03:41;99208.69;;;21.38;100.00
11327;BME280;5718;42.138;24.762;2022-07-09T04:06:08;99210.69;;;21.50;100.00
11327;BME280;5718;42.138;24.762;2022-07-09T04:08:35;99211.44;;;21.53;100.00
11327;BME280;5718;42.138;24.762;2022-07-09T04:11:01;99217.28;;;21.60;100.00
11327;BME280;5718;42.138;24.762;2022-07-09T04:13:29;99213.25;;;21.51;100.00
11327;BME280;5718;42.138;24.762;2022-07-09T04:15:56;99216.84;;;21.50;100.00
11327;BME280;5718;42.138;24.762;2022-07-09T04:18:23;99218.44;;;21.72;100.00
11327;BME280;5718;42.138;24.762;2022-07-09T04:20:50;99223.81;;;21.70;100.00
11327;BME280;5718;42.138;24.762;2022-07-09T04:23:17;99215.22;;;21.65;100.00
11327;BME280;5718;42.138;24.762;2022-07-09T04:25:44;99212.03;;;21.58;100.00
11327;BME280;5718;42.138;24.762;2022-07-09T04:28:13;99216.34;;;21.78;100.00
11327;BME280;5718;42.138;24.762;2022-07-09T04:30:41;99220.50;;;21.48;100.00
11327;BME280;5718;42.138;24.762;2022-07-09T04:33:08;99217.56;;;21.54;100.00
11327;BME280;5718;42.138;24.762;2022-07-09T04:35:35;99225.63;;;21.51;100.00
11327;BME280;5718;42.138;24.762;2022-07-09T04:38:02;99217.84;;;21.48;100.00
11327;BME280;5718;42.138;24.762;2022-07-09T04:40:29;99211.19;;;21.58;100.00
11327;BME280;5718;42.138;24.762;2022-07-09T04:42:55;99212.56;;;21.48;100.00
11327;BME280;5718;42.138;24.762;2022-07-09T04:45:22;99218.13;;;21.61;100.00
11327;BME280;5718;42.138;24.762;2022-07-09T04:47:50;99226.75;;;21.64;100.00
11327;BME280;5718;42.138;24.762;2022-07-09T04:50:17;99218.50;;;21.53;100.00
11327;BME280;5718;42.138;24.762;2022-07-09T04:52:44;99218.81;;;21.64;100.00
11327;BME280;5718;42.138;24.762;2022-07-09T04:55:10;99205.56;;;21.47;100.00
11327;BME280;5718;42.138;24.762;2022-07-09T04:57:37;99212.56;;;21.48;100.00
11327;BME280;5718;42.138;24.762;2022-07-09T05:00:05;99216.00;;;21.50;100.00
11327;BME280;5718;42.138;24.762;2022-07-09T05:02:32;99220.91;;;21.75;100.00
11327;BME280;5718;42.138;24.762;2022-07-09T05:05:00;99223.34;;;21.79;100.00
11327;BME280;5718;42.138;24.762;2022-07-09T05:07:29;99226.06;;;21.95;100.00
11327;BME280;5718;42.138;24.762;2022-07-09T05:09:56;99217.75;;;21.85;100.00
11327;BME280;5718;42.138;24.762;2022-07-09T05:12:23;99219.47;;;21.86;100.00
11327;BME280;5718;42.138;24.762;2022-07-09T05:14:50;99230.03;;;22.04;100.00
11327;BME280;5718;42.138;24.762;2022-07-09T05:17:16;99237.13;;;22.03;100.00
11327;BME280;5718;42.138;24.762;2022-07-09T05:19:43;99234.97;;;22.11;100.00
11327;BME280;5718;42.138;24.762;2022-07-09T05:22:11;99220.44;;;21.84;100.00
11327;BME280;5718;42.138;24.762;2022-07-09T05:24:38;99227.22;;;21.90;100.00
11327;BME280;5718;42.138;24.762;2022-07-09T05:27:06;99230.34;;;21.80;100.00
11327;BME280;5718;42.138;24.762;2022-07-09T05:29:34;99229.47;;;21.80;100.00
11327;BME280;5718;42.138;24.762;2022-07-09T05:32:00;99230.16;;;21.83;100.00
11327;BME280;5718;42.138;24.762;2022-07-09T05:34:27;99230.41;;;21.96;100.00
11327;BME280;5718;42.138;24.762;2022-07-09T05:36:54;99235.47;;;22.01;100.00
11327;BME280;5718;42.138;24.762;2022-07-09T05:39:22;99237.34;;;22.16;100.00
11327;BME280;5718;42.138;24.762;2022-07-09T05:41:49;99235.81;;;22.29;100.00
11327;BME280;5718;42.138;24.762;2022-07-09T05:44:16;99229.41;;;22.33;100.00
11327;BME280;5718;42.138;24.762;2022-07-09T05:46:42;99229.03;;;22.24;100.00
11327;BME280;5718;42.138;24.762;2022-07-09T05:49:09;99232.41;;;22.10;100.00
11327;BME280;5718;42.138;24.762;2022-07-09T05:51:36;99230.44;;;22.13;100.00
11327;BME280;5718;42.138;24.762;2022-07-09T05:54:03;99235.25;;;22.05;100.00
11327;BME280;5718;42.138;24.762;2022-07-09T05:56:31;99239.41;;;22.11;100.00
11327;BME280;5718;42.138;24.762;2022-07-09T05:58:58;99234.38;;;22.05;100.00
11327;BME280;5718;42.138;24.762;2022-07-09T06:01:24;99232.41;;;22.10;100.00
11327;BME280;5718;42.138;24.762;2022-07-09T06:03:51;99232.75;;;21.85;100.00
11327;BME280;5718;42.138;24.762;2022-07-09T06:06:18;99233.63;;;22.03;100.00
11327;BME280;5718;42.138;24.762;2022-07-09T06:08:45;99227.59;;;21.99;100.00
11327;BME280;5718;42.138;24.762;2022-07-09T06:11:11;99228.09;;;22.07;100.00
11327;BME280;5718;42.138;24.762;2022-07-09T06:13:40;99225.84;;;22.17;100.00
11327;BME280;5718;42.138;24.762;2022-07-09T06:16:07;99230.97;;;22.03;100.00
11327;BME280;5718;42.138;24.762;2022-07-09T06:18:33;99226.78;;;22.16;100.00
11327;BME280;5718;42.138;24.762;2022-07-09T06:21:00;99222.13;;;22.21;100.00
11327;BME280;5718;42.138;24.762;2022-07-09T06:23:27;99224.25;;;22.48;100.00
11327;BME280;5718;42.138;24.762;2022-07-09T06:25:54;99223.47;;;22.46;100.00
11327;BME280;5718;42.138;24.762;2022-07-09T06:28:21;99221.44;;;22.66;100.00
11327;BME280;5718;42.138;24.762;2022-07-09T06:30:49;99215.66;;;22.60;100.00
11327;BME280;5718;42.138;24.762;2022-07-09T06:33:16;99211.28;;;22.59;100.00
11327;BME280;5718;42.138;24.762;2022-07-09T06:35:43;99216.09;;;22.68;100.00
11327;BME280;5718;42.138;24.762;2022-07-09T06:38:09;99215.84;;;22.73;100.00
11327;BME280;5718;42.138;24.762;2022-07-09T06:40:36;99210.88;;;22.82;100.00
11327;BME280;5718;42.138;24.762;2022-07-09T06:43:03;99211.53;;;22.87;100.00
11327;BME280;5718;42.138;24.762;2022-07-09T06:45:30;99204.22;;;22.75;100.00
11327;BME280;5718;42.138;24.762;2022-07-09T06:47:58;99205.97;;;23.08;100.00
11327;BME280;5718;42.138;24.762;2022-07-09T06:50:25;99209.03;;;23.16;100.00
11327;BME280;5718;42.138;24.762;2022-07-09T06:52:52;99209.75;;;23.04;100.00
11327;BME280;5718;42.138;24.762;2022-07-09T06:55:18;99204.97;;;23.26;100.00
11327;BME280;5718;42.138;24.762;2022-07-09T06:57:45;99202.22;;;23.27;100.00
11327;BME280;5718;42.138;24.762;2022-07-09T07:00:12;99211.59;;;23.33;100.00
11327;BME280;5718;42.138;24.762;2022-07-09T07:02:39;99198.50;;;23.46;100.00
11327;BME280;5718;42.138;24.762;2022-07-09T07:05:08;99210.28;;;23.10;100.00
11327;BME280;5718;42.138;24.762;2022-07-09T07:07:35;99201.81;;;23.04;100.00
11327;BME280;5718;42.138;24.762;2022-07-09T07:10:02;99202.47;;;22.91;100.00
11327;BME280;5718;42.138;24.762;2022-07-09T07:12:29;99204.13;;;23.10;100.00
11327;BME280;5718;42.138;24.762;2022-07-09T07:14:56;99204.06;;;23.41;100.00
11327;BME280;5718;42.138;24.762;2022-07-09T07:17:22;99204.88;;;23.12;100.00
11327;BME280;5718;42.138;24.762;2022-07-09T07:19:50;99217.09;;;23.30;100.00
11327;BME280;5718;42.138;24.762;2022-07-09T07:22:18;99217.94;;;23.31;100.00
11327;BME280;5718;42.138;24.762;2022-07-09T07:24:45;99211.34;;;23.22;100.00
11327;BME280;5718;42.138;24.762;2022-07-09T07:27:11;99218.03;;;23.29;100.00
11327;BME280;5718;42.138;24.762;2022-07-09T07:29:38;99221.00;;;23.23;100.00
11327;BME280;5718;42.138;24.762;2022-07-09T07:32:06;99215.56;;;23.26;100.00
11327;BME280;5718;42.138;24.762;2022-07-09T07:34:33;99215.38;;;23.45;100.00
11327;BME280;5718;42.138;24.762;2022-07-09T07:36:59;99201.16;;;23.46;100.00
11327;BME280;5718;42.138;24.762;2022-07-09T07:39:27;99214.13;;;23.66;100.00
11327;BME280;5718;42.138;24.762;2022-07-09T07:41:55;99220.72;;;23.75;100.00
11327;BME280;5718;42.138;24.762;2022-07-09T07:44:22;99218.78;;;23.47;100.00
11327;BME280;5718;42.138;24.762;2022-07-09T07:46:50;99213.66;;;23.90;100.00
11327;BME280;5718;42.138;24.762;2022-07-09T07:49:17;99214.88;;;23.84;100.00
11327;BME280;5718;42.138;24.762;2022-07-09T07:51:44;99215.41;;;24.05;100.00
11327;BME280;5718;42.138;24.762;2022-07-09T07:54:10;99217.78;;;24.24;100.00
11327;BME280;5718;42.138;24.762;2022-07-09T07:56:39;99218.75;;;24.08;100.00
11327;BME280;5718;42.138;24.762;2022-07-09T07:59:06;99222.41;;;24.36;100.00
11327;BME280;5718;42.138;24.762;2022-07-09T08:01:33;99221.19;;;24.42;100.00
11327;BME280;5718;42.138;24.762;2022-07-09T08:04:00;99224.03;;;24.23;100.00
11327;BME280;5718;42.138;24.762;2022-07-09T08:06:26;99224.31;;;24.77;98.08
11327;BME280;5718;42.138;24.762;2022-07-09T08:08:53;99228.38;;;24.54;97.50
11327;BME280;5718;42.138;24.762;2022-07-09T08:11:20;99217.41;;;24.16;100.00
11327;BME280;5718;42.138;24.762;2022-07-09T08:13:48;99215.97;;;24.24;100.00
11327;BME280;5718;42.138;24.762;2022-07-09T08:16:15;99215.38;;;24.49;99.65
11327;BME280;5718;42.138;24.762;2022-07-09T08:18:41;99207.41;;;24.92;94.98
11327;BME280;5718;42.138;24.762;2022-07-09T08:21:08;99207.63;;;24.60;93.48
11327;BME280;5718;42.138;24.762;2022-07-09T08:23:35;99203.50;;;24.41;96.67
11327;BME280;5718;42.138;24.762;2022-07-09T08:26:17;99200.13;;;24.53;96.42
11327;BME280;5718;42.138;24.762;2022-07-09T08:28:44;99197.09;;;24.59;93.22
11327;BME280;5718;42.138;24.762;2022-07-09T08:31:13;99200.00;;;24.40;96.44
11327;BME280;5718;42.138;24.762;2022-07-09T08:33:43;99192.72;;;24.58;93.71
11327;BME280;5718;42.138;24.762;2022-07-09T08:36:11;99204.84;;;24.76;89.76
11327;BME280;5718;42.138;24.762;2022-07-09T08:38:37;99206.09;;;24.42;91.29
11327;BME280;5718;42.138;24.762;2022-07-09T08:41:05;99208.47;;;24.75;88.75
11327;BME280;5718;42.138;24.762;2022-07-09T08:43:34;99201.81;;;24.54;89.95
11327;BME280;5718;42.138;24.762;2022-07-09T08:46:01;99199.06;;;24.84;89.05
11327;BME280;5718;42.138;24.762;2022-07-09T08:48:32;99190.72;;;24.61;92.47
11327;BME280;5718;42.138;24.762;2022-07-09T08:50:59;99201.53;;;24.44;90.76
11327;BME280;5718;42.138;24.762;2022-07-09T08:53:27;99189.28;;;24.70;88.15
11327;BME280;5718;42.138;24.762;2022-07-09T08:55:55;99194.38;;;24.87;88.11
11327;BME280;5718;42.138;24.762;2022-07-09T08:58:22;99189.44;;;25.10;85.46
11327;BME280;5718;42.138;24.762;2022-07-09T09:00:49;99191.38;;;25.08;88.19
11327;BME280;5718;42.138;24.762;2022-07-09T09:03:16;99187.84;;;25.07;84.56
11327;BME280;5718;42.138;24.762;2022-07-09T09:05:44;99193.97;;;25.22;84.83
11327;BME280;5718;42.138;24.762;2022-07-09T09:08:18;99181.75;;;25.05;86.75
11327;BME280;5718;42.138;24.762;2022-07-09T09:10:46;99173.88;;;25.31;86.22
11327;BME280;5718;42.138;24.762;2022-07-09T09:13:14;99182.31;;;24.96;87.08
11327;BME280;5718;42.138;24.762;2022-07-09T09:15:41;99183.84;;;25.00;88.99
11327;BME280;5718;42.138;24.762;2022-07-09T09:18:08;99179.66;;;25.37;85.19
11327;BME280;5718;42.138;24.762;2022-07-09T09:20:35;99185.22;;;24.64;89.09
11327;BME280;5718;42.138;24.762;2022-07-09T09:23:03;99189.03;;;24.75;88.18
11327;BME280;5718;42.138;24.762;2022-07-09T09:25:36;99188.69;;;25.08;83.92
11327;BME280;5718;42.138;24.762;2022-07-09T09:28:03;99184.97;;;25.10;85.84
11327;BME280;5718;42.138;24.762;2022-07-09T09:30:30;99197.78;;;24.89;86.02
11327;BME280;5718;42.138;24.762;2022-07-09T09:32:58;99192.56;;;25.02;85.30
11327;BME280;5718;42.138;24.762;2022-07-09T09:35:25;99191.91;;;25.13;84.39
11327;BME280;5718;42.138;24.762;2022-07-09T09:37:52;99199.41;;;25.06;84.67
11327;BME280;5718;42.138;24.762;2022-07-09T09:40:21;99192.47;;;24.89;86.01
11327;BME280;5718;42.138;24.762;2022-07-09T09:42:48;99190.41;;;24.94;85.40
11327;BME280;5718;42.138;24.762;2022-07-09T09:45:16;99188.06;;;24.47;90.94
11327;BME280;5718;42.138;24.762;2022-07-09T09:47:46;99193.09;;;24.66;91.68
11327;BME280;5718;42.138;24.762;2022-07-09T09:50:16;99192.31;;;24.78;88.01
11327;BME280;5718;42.138;24.762;2022-07-09T09:52:46;99195.44;;;24.85;88.36
11327;BME280;5718;42.138;24.762;2022-07-09T09:55:14;99188.03;;;24.90;87.74
11327;BME280;5718;42.138;24.762;2022-07-09T09:57:42;99196.19;;;25.01;87.54
11327;BME280;5718;42.138;24.762;2022-07-09T10:00:11;99186.00;;;24.52;90.30
11327;BME280;5718;42.138;24.762;2022-07-09T10:02:42;99187.69;;;24.68;89.36
11327;BME280;5718;42.138;24.762;2022-07-09T10:05:09;99197.47;;;25.23;86.76
11327;BME280;5718;42.138;24.762;2022-07-09T10:07:36;99192.06;;;25.24;84.54
11327;BME280;5718;42.138;24.762;2022-07-09T10:10:05;99197.75;;;25.32;81.73
11327;BME280;5718;42.138;24.762;2022-07-09T10:12:34;99189.59;;;25.48;81.05
11327;BME280;5718;42.138;24.762;2022-07-09T10:15:08;99189.09;;;25.29;79.86
11327;BME280;5718;42.138;24.762;2022-07-09T10:17:45;99192.50;;;25.31;78.04
11327;BME280;5718;42.138;24.762;2022-07-09T10:20:12;99184.59;;;25.43;78.37
11327;BME280;5718;42.138;24.762;2022-07-09T10:22:40;99184.03;;;25.38;80.44
11327;BME280;5718;42.138;24.762;2022-07-09T10:25:08;99187.09;;;25.59;76.77
11327;BME280;5718;42.138;24.762;2022-07-09T10:27:42;99188.56;;;25.90;75.05
11327;BME280;5718;42.138;24.762;2022-07-09T10:30:22;99178.97;;;25.75;73.64
11327;BME280;5718;42.138;24.762;2022-07-09T10:33:03;99184.75;;;25.67;74.40
11327;BME280;5718;42.138;24.762;2022-07-09T10:35:30;99185.63;;;25.68;74.48
11327;BME280;5718;42.138;24.762;2022-07-09T10:37:56;99175.44;;;25.74;75.25
11327;BME280;5718;42.138;24.762;2022-07-09T10:40:23;99179.63;;;25.64;76.61
11327;BME280;5718;42.138;24.762;2022-07-09T10:43:02;99181.63;;;25.21;79.60
11327;BME280;5718;42.138;24.762;2022-07-09T10:45:36;99176.38;;;25.34;79.36
11327;BME280;5718;42.138;24.762;2022-07-09T10:48:05;99175.53;;;25.46;78.92
11327;BME280;5718;42.138;24.762;2022-07-09T10:50:35;99173.06;;;25.70;74.62
11327;BME280;5718;42.138;24.762;2022-07-09T10:53:02;99175.13;;;25.52;77.03
11327;BME280;5718;42.138;24.762;2022-07-09T10:55:29;99168.91;;;25.39;77.64
11327;BME280;5718;42.138;24.762;2022-07-09T10:57:56;99172.09;;;25.58;76.52
11327;BME280;5718;42.138;24.762;2022-07-09T11:00:25;99174.91;;;25.42;77.31
11327;BME280;5718;42.138;24.762;2022-07-09T11:02:55;99172.38;;;25.54;77.64
11327;BME280;5718;42.138;24.762;2022-07-09T11:05:22;99174.53;;;25.61;75.92
11327;BME280;5718;42.138;24.762;2022-07-09T11:08:00;99165.97;;;25.43;77.30
11327;BME280;5718;42.138;24.762;2022-07-09T11:10:28;99171.97;;;25.60;76.84
11327;BME280;5718;42.138;24.762;2022-07-09T11:12:55;99172.19;;;25.69;76.06
11327;BME280;5718;42.138;24.762;2022-07-09T11:15:24;99168.63;;;25.43;74.71
11327;BME280;5718;42.138;24.762;2022-07-09T11:17:58;99165.81;;;25.59;75.00
11327;BME280;5718;42.138;24.762;2022-07-09T11:20:26;99162.13;;;25.47;76.99
11327;BME280;5718;42.138;24.762;2022-07-09T11:22:53;99156.91;;;25.73;76.41
11327;BME280;5718;42.138;24.762;2022-07-09T11:25:22;99156.75;;;25.62;76.19
11327;BME280;5718;42.138;24.762;2022-07-09T11:27:50;99159.50;;;25.74;74.83
11327;BME280;5718;42.138;24.762;2022-07-09T11:30:17;99156.69;;;25.36;75.76
11327;BME280;5718;42.138;24.762;2022-07-09T11:32:44;99150.13;;;25.42;76.37
11327;BME280;5718;42.138;24.762;2022-07-09T11:35:23;99164.91;;;25.46;77.49
11327;BME280;5718;42.138;24.762;2022-07-09T11:37:51;99158.72;;;25.72;76.01
11327;BME280;5718;42.138;24.762;2022-07-09T11:40:18;99157.31;;;25.67;74.90
11327;BME280;5718;42.138;24.762;2022-07-09T11:42:45;99160.44;;;25.73;74.37
11327;BME280;5718;42.138;24.762;2022-07-09T11:45:12;99161.94;;;25.77;75.28
11327;BME280;5718;42.138;24.762;2022-07-09T11:47:39;99151.81;;;25.43;76.68
11327;BME280;5718;42.138;24.762;2022-07-09T11:50:09;99152.03;;;25.80;76.09
11327;BME280;5718;42.138;24.762;2022-07-09T11:52:42;99152.00;;;25.67;77.28
11327;BME280;5718;42.138;24.762;2022-07-09T11:55:11;99155.97;;;25.74;77.05
11327;BME280;5718;42.138;24.762;2022-07-09T11:57:38;99151.84;;;25.95;76.81
11327;BME280;5718;42.138;24.762;2022-07-09T12:00:07;99142.88;;;25.96;74.94
11327;BME280;5718;42.138;24.762;2022-07-09T12:02:36;99143.72;;;25.71;78.59
11327;BME280;5718;42.138;24.762;2022-07-09T12:05:04;99145.44;;;25.85;78.88
11327;BME280;5718;42.138;24.762;2022-07-09T12:07:32;99145.53;;;25.71;80.60
11327;BME280;5718;42.138;24.762;2022-07-09T12:10:03;99147.59;;;25.53;83.78
11327;BME280;5718;42.138;24.762;2022-07-09T12:12:31;99149.38;;;24.99;82.35
11327;BME280;5718;42.138;24.762;2022-07-09T12:14:58;99155.38;;;24.88;81.59
11327;BME280;5718;42.138;24.762;2022-07-09T12:17:26;99152.69;;;25.02;81.28
11327;BME280;5718;42.138;24.762;2022-07-09T12:19:54;99138.19;;;25.08;79.15
11327;BME280;5718;42.138;24.762;2022-07-09T12:22:22;99147.97;;;24.93;80.14
11327;BME280;5718;42.138;24.762;2022-07-09T12:24:49;99144.06;;;24.99;79.79
11327;BME280;5718;42.138;24.762;2022-07-09T12:27:18;99149.88;;;25.05;79.38
11327;BME280;5718;42.138;24.762;2022-07-09T12:29:46;99138.81;;;24.84;83.79
11327;BME280;5718;42.138;24.762;2022-07-09T12:32:13;99136.94;;;25.13;83.79
11327;BME280;5718;42.138;24.762;2022-07-09T12:34:40;99143.88;;;25.02;85.39
11327;BME280;5718;42.138;24.762;2022-07-09T12:37:07;99142.81;;;25.18;84.18
11327;BME280;5718;42.138;24.762;2022-07-09T12:39:34;99142.91;;;24.76;86.66
11327;BME280;5718;42.138;24.762;2022-07-09T12:42:00;99141.34;;;24.86;88.53
11327;BME280;5718;42.138;24.762;2022-07-09T12:44:29;99139.41;;;24.75;93.01
11327;BME280;5718;42.138;24.762;2022-07-09T12:46:56;99154.66;;;24.57;92.82
11327;BME280;5718;42.138;24.762;2022-07-09T12:49:22;99149.94;;;24.62;91.41
11327;BME280;5718;42.138;24.762;2022-07-09T12:51:49;99139.19;;;24.64;92.47
11327;BME280;5718;42.138;24.762;2022-07-09T12:54:16;99144.03;;;24.29;95.95